sensor_id;sensor_type;location;lat;lon;timestamp;temperature;humidity
15617;DHT22;7908;51.688;7.130;2022-08-02T00:02:20;14.00;99.90
15617;DHT22;7908;51.688;7.130;2022-08-02T00:04:53;14.00;99.90
15617;DHT22;7908;51.688;7.130;2022-08-02T00:07:23;14.00;99.90
15617;DHT22;7908;51.688;7.130;2022-08-02T00:09:56;14.00;99.90
15617;DHT22;7908;51.688;7.130;2022-08-02T00:12:25;14.00;99.90
15617;DHT22;7908;51.688;7.130;2022-08-02T00:14:58;13.80;99.90
15617;DHT22;7908;51.688;7.130;2022-08-02T00:17:28;13.80;99.90
15617;DHT22;7908;51.688;7.130;2022-08-02T00:20:00;13.80;99.90
15617;DHT22;7908;51.688;7.130;2022-08-02T00:22:36;13.80;99.90
15617;DHT22;7908;51.688;7.130;2022-08-02T00:25:07;13.70;99.90
15617;DHT22;7908;51.688;7.130;2022-08-02T00:27:41;13.60;99.90
15617;DHT22;7908;51.688;7.130;2022-08-02T00:30:12;13.50;99.90
15617;DHT22;7908;51.688;7.130;2022-08-02T00:32:46;13.50;99.90
15617;DHT22;7908;51.688;7.130;2022-08-02T00:35:18;13.50;99.90
15617;DHT22;7908;51.688;7.130;2022-08-02T00:37:48;13.50;99.90
15617;DHT22;7908;51.688;7.130;2022-08-02T00:40:27;13.50;99.90
15617;DHT22;7908;51.688;7.130;2022-08-02T00:43:06;13.60;99.90
15617;DHT22;7908;51.688;7.130;2022-08-02T00:45:37;13.60;99.90
15617;DHT22;7908;51.688;7.130;2022-08-02T00:48:27;13.50;99.90
15617;DHT22;7908;51.688;7.130;2022-08-02T00:50:56;13.40;99.90
15617;DHT22;7908;51.688;7.130;2022-08-02T00:53:28;13.50;99.90
15617;DHT22;7908;51.688;7.130;2022-08-02T00:56:02;13.50;99.90
15617;DHT22;7908;51.688;7.130;2022-08-02T00:58:31;13.50;99.90
15617;DHT22;7908;51.688;7.130;2022-08-02T01:01:01;13.50;99.90
15617;DHT22;7908;51.688;7.130;2022-08-02T01:03:30;13.40;99.90
15617;DHT22;7908;51.688;7.130;2022-08-02T01:05:59;13.30;99.90
15617;DHT22;7908;51.688;7.130;2022-08-02T01:08:44;13.30;99.90
15617;DHT22;7908;51.688;7.130;2022-08-02T01:11:15;13.20;99.90
15617;DHT22;7908;51.688;7.130;2022-08-02T01:13:44;13.20;99.90
15617;DHT22;7908;51.688;7.130;2022-08-02T01:16:21;13.20;99.90
15617;DHT22;7908;51.688;7.130;2022-08-02T01:18:56;13.20;99.90
15617;DHT22;7908;51.688;7.130;2022-08-02T01:21:59;13.20;99.90
15617;DHT22;7908;51.688;7.130;2022-08-02T01:27:51;13.20;99.90
15617;DHT22;7908;51.688;7.130;2022-08-02T01:30:25;13.30;99.90
15617;DHT22;7908;51.688;7.130;2022-08-02T01:32:58;13.30;99.90
15617;DHT22;7908;51.688;7.130;2022-08-02T01:35:34;13.30;99.90
15617;DHT22;7908;51.688;7.130;2022-08-02T01:38:22;13.30;99.90
15617;DHT22;7908;51.688;7.130;2022-08-02T01:40:59;13.10;99.90
15617;DHT22;7908;51.688;7.130;2022-08-02T01:43:30;13.10;99.90
15617;DHT22;7908;51.688;7.130;2022-08-02T01:46:03;13.20;99.90
15617;DHT22;7908;51.688;7.130;2022-08-02T01:48:34;13.20;99.90
15617;DHT22;7908;51.688;7.130;2022-08-02T01:51:04;13.20;99.90
15617;DHT22;7908;51.688;7.130;2022-08-02T01:53:35;13.20;99.90
15617;DHT22;7908;51.688;7.130;2022-08-02T01:56:10;13.10;99.90
15617;DHT22;7908;51.688;7.130;2022-08-02T01:58:44;13.10;99.90
15617;DHT22;7908;51.688;7.130;2022-08-02T02:01:17;13.20;99.90
15617;DHT22;7908;51.688;7.130;2022-08-02T02:03:50;13.10;99.90
15617;DHT22;7908;51.688;7.130;2022-08-02T02:06:20;13.00;99.90
15617;DHT22;7908;51.688;7.130;2022-08-02T02:08:55;12.90;99.90
15617;DHT22;7908;51.688;7.130;2022-08-02T02:11:31;12.80;99.90
15617;DHT22;7908;51.688;7.130;2022-08-02T02:14:22;12.90;99.90
15617;DHT22;7908;51.688;7.130;2022-08-02T02:17:00;12.90;99.90
15617;DHT22;7908;51.688;7.130;2022-08-02T02:19:57;12.90;99.90
15617;DHT22;7908;51.688;7.130;2022-08-02T02:22:28;12.90;99.90
15617;DHT22;7908;51.688;7.130;2022-08-02T02:25:01;12.80;99.90
15617;DHT22;7908;51.688;7.130;2022-08-02T02:27:34;12.80;99.90
15617;DHT22;7908;51.688;7.130;2022-08-02T02:30:07;12.70;99.90
15617;DHT22;7908;51.688;7.130;2022-08-02T02:32:40;12.70;99.90
15617;DHT22;7908;51.688;7.130;2022-08-02T02:35:10;12.70;99.90
15617;DHT22;7908;51.688;7.130;2022-08-02T02:37:45;12.70;99.90
15617;DHT22;7908;51.688;7.130;2022-08-02T02:40:16;12.60;99.90
15617;DHT22;7908;51.688;7.130;2022-08-02T02:42:49;12.60;99.90
15617;DHT22;7908;51.688;7.130;2022-08-02T02:45:20;12.60;99.90
15617;DHT22;7908;51.688;7.130;2022-08-02T02:47:52;12.50;99.90
15617;DHT22;7908;51.688;7.130;2022-08-02T02:50:24;12.40;99.90
15617;DHT22;7908;51.688;7.130;2022-08-02T02:52:53;12.30;99.90
15617;DHT22;7908;51.688;7.130;2022-08-02T02:55:23;12.30;99.90
15617;DHT22;7908;51.688;7.130;2022-08-02T02:57:55;12.30;99.90
15617;DHT22;7908;51.688;7.130;2022-08-02T03:00:25;12.30;99.90
15617;DHT22;7908;51.688;7.130;2022-08-02T03:03:12;12.30;99.90
15617;DHT22;7908;51.688;7.130;2022-08-02T03:05:47;12.30;99.90
15617;DHT22;7908;51.688;7.130;2022-08-02T03:08:17;12.30;99.90
15617;DHT22;7908;51.688;7.130;2022-08-02T03:10:48;12.30;99.90
15617;DHT22;7908;51.688;7.130;2022-08-02T03:13:18;12.30;99.90
15617;DHT22;7908;51.688;7.130;2022-08-02T03:15:51;12.20;99.90
15617;DHT22;7908;51.688;7.130;2022-08-02T03:18:33;12.10;99.90
15617;DHT22;7908;51.688;7.130;2022-08-02T03:21:06;12.00;99.90
15617;DHT22;7908;51.688;7.130;2022-08-02T03:23:41;11.90;99.90
15617;DHT22;7908;51.688;7.130;2022-08-02T03:26:26;11.80;99.90
15617;DHT22;7908;51.688;7.130;2022-08-02T03:28:55;11.80;99.90
15617;DHT22;7908;51.688;7.130;2022-08-02T03:31:25;11.90;99.90
15617;DHT22;7908;51.688;7.130;2022-08-02T03:34:00;12.00;99.90
15617;DHT22;7908;51.688;7.130;2022-08-02T03:36:32;11.90;99.90
15617;DHT22;7908;51.688;7.130;2022-08-02T03:39:03;11.90;99.90
15617;DHT22;7908;51.688;7.130;2022-08-02T03:41:35;11.90;99.90
15617;DHT22;7908;51.688;7.130;2022-08-02T03:44:08;12.00;99.90
15617;DHT22;7908;51.688;7.130;2022-08-02T03:46:39;12.00;99.90
15617;DHT22;7908;51.688;7.130;2022-08-02T03:49:19;12.00;99.90
15617;DHT22;7908;51.688;7.130;2022-08-02T03:51:49;12.10;99.90
15617;DHT22;7908;51.688;7.130;2022-08-02T03:54:19;12.00;99.90
15617;DHT22;7908;51.688;7.130;2022-08-02T03:57:01;12.00;99.90
15617;DHT22;7908;51.688;7.130;2022-08-02T03:59:39;11.90;99.90
15617;DHT22;7908;51.688;7.130;2022-08-02T04:02:11;11.90;99.90
15617;DHT22;7908;51.688;7.130;2022-08-02T04:04:42;11.90;99.90
15617;DHT22;7908;51.688;7.130;2022-08-02T04:07:12;11.90;99.90
15617;DHT22;7908;51.688;7.130;2022-08-02T04:10:03;11.90;99.90
15617;DHT22;7908;51.688;7.130;2022-08-02T04:12:32;11.80;99.90
15617;DHT22;7908;51.688;7.130;2022-08-02T04:15:07;11.80;99.90
15617;DHT22;7908;51.688;7.130;2022-08-02T04:17:42;11.80;99.90
15617;DHT22;7908;51.688;7.130;2022-08-02T04:20:21;11.90;99.90
15617;DHT22;7908;51.688;7.130;2022-08-02T04:22:57;11.90;99.90
15617;DHT22;7908;51.688;7.130;2022-08-02T04:25:28;12.00;99.90
15617;DHT22;7908;51.688;7.130;2022-08-02T04:28:04;12.00;99.90
15617;DHT22;7908;51.688;7.130;2022-08-02T04:30:48;12.00;99.90
15617;DHT22;7908;51.688;7.130;2022-08-02T04:33:22;12.10;99.90
15617;DHT22;7908;51.688;7.130;2022-08-02T04:35:55;12.10;99.90
15617;DHT22;7908;51.688;7.130;2022-08-02T04:38:28;12.10;99.90
15617;DHT22;7908;51.688;7.130;2022-08-02T04:40:59;12.10;99.90
15617;DHT22;7908;51.688;7.130;2022-08-02T04:43:29;12.00;99.90
15617;DHT22;7908;51.688;7.130;2022-08-02T04:45:58;12.00;99.90
15617;DHT22;7908;51.688;7.130;2022-08-02T04:48:31;12.00;99.90
15617;DHT22;7908;51.688;7.130;2022-08-02T04:51:03;12.00;99.90
15617;DHT22;7908;51.688;7.130;2022-08-02T04:53:32;12.10;99.90
15617;DHT22;7908;51.688;7.130;2022-08-02T04:56:02;12.20;99.90
15617;DHT22;7908;51.688;7.130;2022-08-02T04:58:32;12.30;99.90
15617;DHT22;7908;51.688;7.130;2022-08-02T05:01:07;12.50;99.90
15617;DHT22;7908;51.688;7.130;2022-08-02T05:03:36;12.60;99.90
15617;DHT22;7908;51.688;7.130;2022-08-02T05:06:07;12.60;99.90
15617;DHT22;7908;51.688;7.130;2022-08-02T05:08:46;12.60;99.90
15617;DHT22;7908;51.688;7.130;2022-08-02T05:11:20;12.60;99.90
15617;DHT22;7908;51.688;7.130;2022-08-02T05:14:01;12.70;99.90
15617;DHT22;7908;51.688;7.130;2022-08-02T05:16:34;12.80;99.90
15617;DHT22;7908;51.688;7.130;2022-08-02T05:19:04;13.00;99.90
15617;DHT22;7908;51.688;7.130;2022-08-02T05:21:35;13.30;99.90
15617;DHT22;7908;51.688;7.130;2022-08-02T05:24:05;13.50;99.90
15617;DHT22;7908;51.688;7.130;2022-08-02T05:26:35;13.60;99.90
15617;DHT22;7908;51.688;7.130;2022-08-02T05:29:04;13.60;99.90
15617;DHT22;7908;51.688;7.130;2022-08-02T05:31:34;13.60;99.90
15617;DHT22;7908;51.688;7.130;2022-08-02T05:34:06;13.60;99.90
15617;DHT22;7908;51.688;7.130;2022-08-02T05:36:39;13.50;99.90
15617;DHT22;7908;51.688;7.130;2022-08-02T05:39:11;13.50;99.90
15617;DHT22;7908;51.688;7.130;2022-08-02T05:41:46;13.40;99.90
15617;DHT22;7908;51.688;7.130;2022-08-02T05:44:15;13.50;99.90
15617;DHT22;7908;51.688;7.130;2022-08-02T05:46:44;13.60;99.90
15617;DHT22;7908;51.688;7.130;2022-08-02T05:49:14;13.70;99.90
15617;DHT22;7908;51.688;7.130;2022-08-02T05:51:54;13.90;99.90
15617;DHT22;7908;51.688;7.130;2022-08-02T05:54:38;14.20;99.90
15617;DHT22;7908;51.688;7.130;2022-08-02T05:57:16;14.30;99.90
15617;DHT22;7908;51.688;7.130;2022-08-02T05:59:57;14.40;99.90
15617;DHT22;7908;51.688;7.130;2022-08-02T06:02:42;14.60;99.90
15617;DHT22;7908;51.688;7.130;2022-08-02T06:05:15;14.80;99.90
15617;DHT22;7908;51.688;7.130;2022-08-02T06:07:54;15.00;99.90
15617;DHT22;7908;51.688;7.130;2022-08-02T06:10:26;15.20;99.90
15617;DHT22;7908;51.688;7.130;2022-08-02T06:13:09;15.30;99.90
15617;DHT22;7908;51.688;7.130;2022-08-02T06:15:41;15.40;99.90
15617;DHT22;7908;51.688;7.130;2022-08-02T06:18:20;15.60;99.90
15617;DHT22;7908;51.688;7.130;2022-08-02T06:20:57;15.80;99.90
15617;DHT22;7908;51.688;7.130;2022-08-02T06:23:51;16.10;99.90
15617;DHT22;7908;51.688;7.130;2022-08-02T06:26:27;16.40;99.90
15617;DHT22;7908;51.688;7.130;2022-08-02T06:29:02;16.50;99.90
15617;DHT22;7908;51.688;7.130;2022-08-02T06:31:32;16.70;99.90
15617;DHT22;7908;51.688;7.130;2022-08-02T06:34:01;16.90;99.90
15617;DHT22;7908;51.688;7.130;2022-08-02T06:36:36;17.20;99.90
15617;DHT22;7908;51.688;7.130;2022-08-02T06:39:20;17.40;99.90
15617;DHT22;7908;51.688;7.130;2022-08-02T06:41:57;17.60;99.90
15617;DHT22;7908;51.688;7.130;2022-08-02T06:44:29;17.80;99.90
15617;DHT22;7908;51.688;7.130;2022-08-02T06:47:19;17.90;99.90
15617;DHT22;7908;51.688;7.130;2022-08-02T06:49:48;18.10;99.90
15617;DHT22;7908;51.688;7.130;2022-08-02T06:52:23;18.40;99.90
15617;DHT22;7908;51.688;7.130;2022-08-02T06:54:59;18.50;99.90
15617;DHT22;7908;51.688;7.130;2022-08-02T06:57:29;18.70;99.90
15617;DHT22;7908;51.688;7.130;2022-08-02T07:00:03;18.90;99.90
15617;DHT22;7908;51.688;7.130;2022-08-02T07:02:36;19.10;99.90
15617;DHT22;7908;51.688;7.130;2022-08-02T07:05:12;19.30;99.90
15617;DHT22;7908;51.688;7.130;2022-08-02T07:07:44;19.50;99.90
15617;DHT22;7908;51.688;7.130;2022-08-02T07:10:18;19.80;99.90
15617;DHT22;7908;51.688;7.130;2022-08-02T07:12:50;20.10;99.90
15617;DHT22;7908;51.688;7.130;2022-08-02T07:15:26;20.20;99.90
15617;DHT22;7908;51.688;7.130;2022-08-02T07:17:56;20.40;99.90
15617;DHT22;7908;51.688;7.130;2022-08-02T07:20:31;20.60;99.90
15617;DHT22;7908;51.688;7.130;2022-08-02T07:23:04;20.80;99.90
15617;DHT22;7908;51.688;7.130;2022-08-02T07:25:36;21.00;99.90
15617;DHT22;7908;51.688;7.130;2022-08-02T07:28:27;21.20;99.90
15617;DHT22;7908;51.688;7.130;2022-08-02T07:30:57;21.40;99.90
15617;DHT22;7908;51.688;7.130;2022-08-02T07:33:33;21.50;99.90
15617;DHT22;7908;51.688;7.130;2022-08-02T07:36:08;21.60;99.90
15617;DHT22;7908;51.688;7.130;2022-08-02T07:38:49;21.70;99.90
15617;DHT22;7908;51.688;7.130;2022-08-02T07:41:26;21.70;99.90
15617;DHT22;7908;51.688;7.130;2022-08-02T07:43:56;21.80;99.90
15617;DHT22;7908;51.688;7.130;2022-08-02T07:46:29;21.90;99.90
15617;DHT22;7908;51.688;7.130;2022-08-02T07:49:00;21.90;99.90
15617;DHT22;7908;51.688;7.130;2022-08-02T07:51:32;22.10;99.90
15617;DHT22;7908;51.688;7.130;2022-08-02T07:54:05;22.20;99.90
15617;DHT22;7908;51.688;7.130;2022-08-02T07:56:39;22.30;99.90
15617;DHT22;7908;51.688;7.130;2022-08-02T07:59:11;22.30;99.90
15617;DHT22;7908;51.688;7.130;2022-08-02T08:01:42;22.40;99.90
15617;DHT22;7908;51.688;7.130;2022-08-02T08:04:12;22.40;99.90
15617;DHT22;7908;51.688;7.130;2022-08-02T08:06:45;22.40;99.90
15617;DHT22;7908;51.688;7.130;2022-08-02T08:09:19;22.40;99.90
15617;DHT22;7908;51.688;7.130;2022-08-02T08:11:57;22.40;99.90
15617;DHT22;7908;51.688;7.130;2022-08-02T08:14:36;22.50;99.90
15617;DHT22;7908;51.688;7.130;2022-08-02T08:17:06;22.60;99.90
15617;DHT22;7908;51.688;7.130;2022-08-02T08:19:37;22.70;99.90
15617;DHT22;7908;51.688;7.130;2022-08-02T08:22:20;22.80;99.90
15617;DHT22;7908;51.688;7.130;2022-08-02T08:24:51;22.90;99.90
15617;DHT22;7908;51.688;7.130;2022-08-02T08:27:25;23.00;99.90
15617;DHT22;7908;51.688;7.130;2022-08-02T08:29:56;23.10;99.90
15617;DHT22;7908;51.688;7.130;2022-08-02T08:32:28;23.10;99.90
15617;DHT22;7908;51.688;7.130;2022-08-02T08:35:01;23.20;99.90
15617;DHT22;7908;51.688;7.130;2022-08-02T08:37:33;23.30;99.90
15617;DHT22;7908;51.688;7.130;2022-08-02T08:40:11;23.50;99.90
15617;DHT22;7908;51.688;7.130;2022-08-02T08:42:47;23.50;99.90
15617;DHT22;7908;51.688;7.130;2022-08-02T08:45:19;23.60;99.90
15617;DHT22;7908;51.688;7.130;2022-08-02T08:47:54;23.60;99.90
15617;DHT22;7908;51.688;7.130;2022-08-02T08:50:29;23.70;99.90
15617;DHT22;7908;51.688;7.130;2022-08-02T08:53:09;23.70;99.90
15617;DHT22;7908;51.688;7.130;2022-08-02T08:55:44;23.80;99.90
15617;DHT22;7908;51.688;7.130;2022-08-02T08:58:30;23.90;99.90
15617;DHT22;7908;51.688;7.130;2022-08-02T09:01:04;24.00;99.90
15617;DHT22;7908;51.688;7.130;2022-08-02T09:03:36;24.10;99.90
15617;DHT22;7908;51.688;7.130;2022-08-02T09:06:14;24.20;99.90
15617;DHT22;7908;51.688;7.130;2022-08-02T09:08:49;24.20;99.90
15617;DHT22;7908;51.688;7.130;2022-08-02T09:11:23;24.30;99.90
15617;DHT22;7908;51.688;7.130;2022-08-02T09:13:58;24.40;99.90
15617;DHT22;7908;51.688;7.130;2022-08-02T09:16:37;24.50;99.90
15617;DHT22;7908;51.688;7.130;2022-08-02T09:19:22;24.50;99.90
15617;DHT22;7908;51.688;7.130;2022-08-02T09:22:00;24.60;99.90
15617;DHT22;7908;51.688;7.130;2022-08-02T09:24:46;24.60;99.90
15617;DHT22;7908;51.688;7.130;2022-08-02T09:27:20;24.60;99.90
15617;DHT22;7908;51.688;7.130;2022-08-02T09:29:53;24.70;99.90
15617;DHT22;7908;51.688;7.130;2022-08-02T09:32:47;24.70;99.90
15617;DHT22;7908;51.688;7.130;2022-08-02T09:35:33;24.80;99.90
15617;DHT22;7908;51.688;7.130;2022-08-02T09:38:23;24.80;99.90
15617;DHT22;7908;51.688;7.130;2022-08-02T09:40:53;24.80;99.90
15617;DHT22;7908;51.688;7.130;2022-08-02T09:43:38;24.90;99.90
15617;DHT22;7908;51.688;7.130;2022-08-02T09:46:34;25.00;99.90
15617;DHT22;7908;51.688;7.130;2022-08-02T09:49:10;25.10;99.90
15617;DHT22;7908;51.688;7.130;2022-08-02T09:51:49;25.30;99.90
15617;DHT22;7908;51.688;7.130;2022-08-02T09:54:27;25.40;99.90
15617;DHT22;7908;51.688;7.130;2022-08-02T09:57:01;25.60;99.90
15617;DHT22;7908;51.688;7.130;2022-08-02T09:59:51;25.60;99.90
15617;DHT22;7908;51.688;7.130;2022-08-02T10:02:25;25.80;99.90
15617;DHT22;7908;51.688;7.130;2022-08-02T10:04:55;25.80;99.90
15617;DHT22;7908;51.688;7.130;2022-08-02T10:07:31;25.80;99.90
15617;DHT22;7908;51.688;7.130;2022-08-02T10:10:06;25.80;99.90
15617;DHT22;7908;51.688;7.130;2022-08-02T10:12:40;25.70;99.90
15617;DHT22;7908;51.688;7.130;2022-08-02T10:15:10;25.60;99.90
15617;DHT22;7908;51.688;7.130;2022-08-02T10:17:43;25.50;99.90
15617;DHT22;7908;51.688;7.130;2022-08-02T10:20:20;25.50;99.90
15617;DHT22;7908;51.688;7.130;2022-08-02T10:22:53;25.50;99.90
15617;DHT22;7908;51.688;7.130;2022-08-02T10:25:26;25.60;99.90
15617;DHT22;7908;51.688;7.130;2022-08-02T10:28:01;25.70;99.90
15617;DHT22;7908;51.688;7.130;2022-08-02T10:30:35;25.70;99.90
15617;DHT22;7908;51.688;7.130;2022-08-02T10:33:10;25.80;99.90
15617;DHT22;7908;51.688;7.130;2022-08-02T10:35:41;25.80;99.90
15617;DHT22;7908;51.688;7.130;2022-08-02T10:38:12;25.70;99.90
15617;DHT22;7908;51.688;7.130;2022-08-02T10:41:01;25.80;99.90
15617;DHT22;7908;51.688;7.130;2022-08-02T10:43:41;26.00;99.90
15617;DHT22;7908;51.688;7.130;2022-08-02T10:46:35;26.00;99.90
15617;DHT22;7908;51.688;7.130;2022-08-02T10:49:13;26.00;99.90
15617;DHT22;7908;51.688;7.130;2022-08-02T10:52:07;25.90;99.90
15617;DHT22;7908;51.688;7.130;2022-08-02T10:54:41;26.00;99.90
15617;DHT22;7908;51.688;7.130;2022-08-02T10:57:20;26.00;99.90
15617;DHT22;7908;51.688;7.130;2022-08-02T10:59:55;26.00;99.90
15617;DHT22;7908;51.688;7.130;2022-08-02T11:02:37;26.10;99.90
15617;DHT22;7908;51.688;7.130;2022-08-02T11:05:10;26.30;99.90
15617;DHT22;7908;51.688;7.130;2022-08-02T11:07:44;26.50;99.90
15617;DHT22;7908;51.688;7.130;2022-08-02T11:10:38;26.50;99.90
15617;DHT22;7908;51.688;7.130;2022-08-02T11:13:13;26.60;99.90
15617;DHT22;7908;51.688;7.130;2022-08-02T11:16:08;26.70;99.90
15617;DHT22;7908;51.688;7.130;2022-08-02T11:19:01;26.80;99.90
15617;DHT22;7908;51.688;7.130;2022-08-02T11:21:39;26.80;99.90
15617;DHT22;7908;51.688;7.130;2022-08-02T11:24:31;26.70;99.90
15617;DHT22;7908;51.688;7.130;2022-08-02T11:27:18;26.80;99.90
15617;DHT22;7908;51.688;7.130;2022-08-02T11:29:49;26.80;99.90
15617;DHT22;7908;51.688;7.130;2022-08-02T11:32:29;26.80;99.90
15617;DHT22;7908;51.688;7.130;2022-08-02T11:35:04;26.80;99.90
15617;DHT22;7908;51.688;7.130;2022-08-02T11:37:36;26.80;99.90
15617;DHT22;7908;51.688;7.130;2022-08-02T11:40:14;26.80;99.90
15617;DHT22;7908;51.688;7.130;2022-08-02T11:42:47;26.90;99.90
15617;DHT22;7908;51.688;7.130;2022-08-02T11:45:24;27.00;99.90
15617;DHT22;7908;51.688;7.130;2022-08-02T11:47:56;27.10;99.90
15617;DHT22;7908;51.688;7.130;2022-08-02T11:50:28;27.30;99.90
15617;DHT22;7908;51.688;7.130;2022-08-02T11:53:18;27.40;99.90
15617;DHT22;7908;51.688;7.130;2022-08-02T11:55:56;27.50;99.90
15617;DHT22;7908;51.688;7.130;2022-08-02T11:58:34;27.50;99.90
15617;DHT22;7908;51.688;7.130;2022-08-02T12:01:08;27.40;99.90
15617;DHT22;7908;51.688;7.130;2022-08-02T12:03:38;27.40;99.90
15617;DHT22;7908;51.688;7.130;2022-08-02T12:06:19;27.40;99.90
15617;DHT22;7908;51.688;7.130;2022-08-02T12:08:51;27.40;99.90
15617;DHT22;7908;51.688;7.130;2022-08-02T12:11:31;27.40;99.90
15617;DHT22;7908;51.688;7.130;2022-08-02T12:14:05;27.40;99.90
15617;DHT22;7908;51.688;7.130;2022-08-02T12:16:40;27.50;99.90
15617;DHT22;7908;51.688;7.130;2022-08-02T12:19:35;27.50;99.90
15617;DHT22;7908;51.688;7.130;2022-08-02T12:22:12;27.40;99.90
15617;DHT22;7908;51.688;7.130;2022-08-02T12:24:46;27.40;99.90
15617;DHT22;7908;51.688;7.130;2022-08-02T12:27:32;27.50;99.90
15617;DHT22;7908;51.688;7.130;2022-08-02T12:30:08;27.50;99.90
15617;DHT22;7908;51.688;7.130;2022-08-02T12:32:40;27.70;99.90
15617;DHT22;7908;51.688;7.130;2022-08-02T12:35:17;27.70;99.90
15617;DHT22;7908;51.688;7.130;2022-08-02T12:37:53;27.80;99.90
15617;DHT22;7908;51.688;7.130;2022-08-02T12:40:35;27.90;99.90
15617;DHT22;7908;51.688;7.130;2022-08-02T12:43:16;28.00;99.90
15617;DHT22;7908;51.688;7.130;2022-08-02T12:45:54;28.10;99.90
15617;DHT22;7908;51.688;7.130;2022-08-02T12:48:36;28.00;99.90
15617;DHT22;7908;51.688;7.130;2022-08-02T12:51:31;28.10;99.90
15617;DHT22;7908;51.688;7.130;2022-08-02T12:54:27;28.00;99.90
15617;DHT22;7908;51.688;7.130;2022-08-02T12:57:12;28.00;99.90
15617;DHT22;7908;51.688;7.130;2022-08-02T12:59:50;28.10;99.90
15617;DHT22;7908;51.688;7.130;2022-08-02T13:02:25;28.20;99.90
15617;DHT22;7908;51.688;7.130;2022-08-02T13:05:08;28.40;99.90
15617;DHT22;7908;51.688;7.130;2022-08-02T13:07:37;28.40;99.90
15617;DHT22;7908;51.688;7.130;2022-08-02T13:10:11;28.40;99.40
15617;DHT22;7908;51.688;7.130;2022-08-02T13:12:47;28.30;98.60
15617;DHT22;7908;51.688;7.130;2022-08-02T13:15:18;28.30;98.90
15617;DHT22;7908;51.688;7.130;2022-08-02T13:18:08;28.40;99.30
15617;DHT22;7908;51.688;7.130;2022-08-02T13:20:39;28.50;99.10
15617;DHT22;7908;51.688;7.130;2022-08-02T13:23:17;28.40;98.70
15617;DHT22;7908;51.688;7.130;2022-08-02T13:25:50;28.30;98.80
15617;DHT22;7908;51.688;7.130;2022-08-02T13:28:25;28.30;98.70
15617;DHT22;7908;51.688;7.130;2022-08-02T13:30:55;28.20;99.00
15617;DHT22;7908;51.688;7.130;2022-08-02T13:33:47;28.20;99.50
15617;DHT22;7908;51.688;7.130;2022-08-02T13:36:24;28.20;99.20
15617;DHT22;7908;51.688;7.130;2022-08-02T13:38:56;28.20;99.20
15617;DHT22;7908;51.688;7.130;2022-08-02T13:41:29;28.20;99.70
15617;DHT22;7908;51.688;7.130;2022-08-02T13:44:04;28.20;99.90
15617;DHT22;7908;51.688;7.130;2022-08-02T13:46:40;28.30;99.50
15617;DHT22;7908;51.688;7.130;2022-08-02T13:49:14;28.30;99.20
15617;DHT22;7908;51.688;7.130;2022-08-02T13:51:46;28.30;98.80
15617;DHT22;7908;51.688;7.130;2022-08-02T13:54:20;28.30;98.60
15617;DHT22;7908;51.688;7.130;2022-08-02T13:56:49;28.20;98.60
15617;DHT22;7908;51.688;7.130;2022-08-02T13:59:27;28.20;98.50
15617;DHT22;7908;51.688;7.130;2022-08-02T14:02:20;28.30;98.80
15617;DHT22;7908;51.688;7.130;2022-08-02T14:04:54;28.30;99.10
15617;DHT22;7908;51.688;7.130;2022-08-02T14:07:26;28.40;99.20
15617;DHT22;7908;51.688;7.130;2022-08-02T14:10:06;28.60;99.30
15617;DHT22;7908;51.688;7.130;2022-08-02T14:12:36;28.70;98.90
15617;DHT22;7908;51.688;7.130;2022-08-02T14:15:09;28.70;98.60
15617;DHT22;7908;51.688;7.130;2022-08-02T14:17:45;28.60;98.10
15617;DHT22;7908;51.688;7.130;2022-08-02T14:20:21;28.50;97.90
15617;DHT22;7908;51.688;7.130;2022-08-02T14:23:00;28.40;98.30
15617;DHT22;7908;51.688;7.130;2022-08-02T14:25:32;28.30;98.30
15617;DHT22;7908;51.688;7.130;2022-08-02T14:28:02;28.30;98.50
15617;DHT22;7908;51.688;7.130;2022-08-02T14:30:35;28.40;98.60
15617;DHT22;7908;51.688;7.130;2022-08-02T14:33:09;28.40;98.70
15617;DHT22;7908;51.688;7.130;2022-08-02T14:35:40;28.50;98.80
15617;DHT22;7908;51.688;7.130;2022-08-02T14:38:09;28.50;97.90
15617;DHT22;7908;51.688;7.130;2022-08-02T14:40:42;28.50;97.80
15617;DHT22;7908;51.688;7.130;2022-08-02T14:43:15;28.50;97.80
15617;DHT22;7908;51.688;7.130;2022-08-02T14:46:11;28.50;97.30
15617;DHT22;7908;51.688;7.130;2022-08-02T14:48:41;28.50;97.00
15617;DHT22;7908;51.688;7.130;2022-08-02T14:51:17;28.50;96.80
15617;DHT22;7908;51.688;7.130;2022-08-02T14:53:52;28.50;97.10
15617;DHT22;7908;51.688;7.130;2022-08-02T14:56:32;28.50;96.70
15617;DHT22;7908;51.688;7.130;2022-08-02T14:59:01;28.40;97.00
15617;DHT22;7908;51.688;7.130;2022-08-02T15:01:42;28.40;97.30
15617;DHT22;7908;51.688;7.130;2022-08-02T15:04:14;28.50;97.70
15617;DHT22;7908;51.688;7.130;2022-08-02T15:06:46;28.50;97.50
15617;DHT22;7908;51.688;7.130;2022-08-02T15:09:22;28.50;97.20
15617;DHT22;7908;51.688;7.130;2022-08-02T15:11:57;28.50;97.40
15617;DHT22;7908;51.688;7.130;2022-08-02T15:14:32;28.50;97.50
15617;DHT22;7908;51.688;7.130;2022-08-02T15:17:04;28.50;97.40
15617;DHT22;7908;51.688;7.130;2022-08-02T15:19:38;28.50;97.20
15617;DHT22;7908;51.688;7.130;2022-08-02T15:22:26;28.50;96.80
15617;DHT22;7908;51.688;7.130;2022-08-02T15:24:59;28.40;96.70
15617;DHT22;7908;51.688;7.130;2022-08-02T15:27:49;28.30;97.00
15617;DHT22;7908;51.688;7.130;2022-08-02T15:30:19;28.30;96.60
15617;DHT22;7908;51.688;7.130;2022-08-02T15:32:51;28.30;96.70
15617;DHT22;7908;51.688;7.130;2022-08-02T15:35:21;28.40;96.50
15617;DHT22;7908;51.688;7.130;2022-08-02T15:37:56;28.50;96.60
15617;DHT22;7908;51.688;7.130;2022-08-02T15:40:27;28.50;96.20
15617;DHT22;7908;51.688;7.130;2022-08-02T15:42:57;28.50;96.20
15617;DHT22;7908;51.688;7.130;2022-08-02T15:45:31;28.40;96.00
15617;DHT22;7908;51.688;7.130;2022-08-02T15:48:02;28.30;95.60
15617;DHT22;7908;51.688;7.130;2022-08-02T15:50:39;28.30;96.10
15617;DHT22;7908;51.688;7.130;2022-08-02T15:53:12;28.30;96.60
15617;DHT22;7908;51.688;7.130;2022-08-02T15:55:41;28.40;96.70
15617;DHT22;7908;51.688;7.130;2022-08-02T15:58:31;28.40;96.30
15617;DHT22;7908;51.688;7.130;2022-08-02T16:01:11;28.30;95.60
15617;DHT22;7908;51.688;7.130;2022-08-02T16:03:42;28.40;95.50
15617;DHT22;7908;51.688;7.130;2022-08-02T16:06:15;28.30;95.90
15617;DHT22;7908;51.688;7.130;2022-08-02T16:08:47;28.30;94.70
15617;DHT22;7908;51.688;7.130;2022-08-02T16:11:23;28.20;95.00
15617;DHT22;7908;51.688;7.130;2022-08-02T16:13:55;28.20;95.10
15617;DHT22;7908;51.688;7.130;2022-08-02T16:16:35;28.20;94.90
15617;DHT22;7908;51.688;7.130;2022-08-02T16:19:14;28.10;95.30
15617;DHT22;7908;51.688;7.130;2022-08-02T16:22:06;28.20;95.10
15617;DHT22;7908;51.688;7.130;2022-08-02T16:24:40;28.20;95.20
15617;DHT22;7908;51.688;7.130;2022-08-02T16:27:12;28.20;94.80
15617;DHT22;7908;51.688;7.130;2022-08-02T16:29:50;28.20;94.90
15617;DHT22;7908;51.688;7.130;2022-08-02T16:32:25;28.20;95.10
15617;DHT22;7908;51.688;7.130;2022-08-02T16:35:04;28.20;95.10
15617;DHT22;7908;51.688;7.130;2022-08-02T16:37:35;28.20;95.20
15617;DHT22;7908;51.688;7.130;2022-08-02T16:40:19;28.30;95.10
15617;DHT22;7908;51.688;7.130;2022-08-02T16:43:01;28.20;94.20